createdAt,value
2022-07-26T00:00:09.097Z,99751.31
2022-07-26T00:00:53.493Z,99753.72
2022-07-26T00:01:38.684Z,99744.72
2022-07-26T00:02:27.775Z,99754.84
2022-07-26T00:03:14.429Z,99740.34
2022-07-26T00:03:58.688Z,99745.84
2022-07-26T00:04:44.360Z,99743.91
2022-07-26T00:05:28.256Z,99743.09
2022-07-26T00:06:13.098Z,99743.91
2022-07-26T00:06:58.604Z,99748.56
2022-07-26T00:07:43.536Z,99740.34
2022-07-26T00:08:28.274Z,99747.75
2022-07-26T00:09:13.144Z,99743.91
2022-07-26T00:09:57.789Z,99745.84
2022-07-26T00:10:41.971Z,99738.44
2022-07-26T00:11:26.640Z,99743.09
2022-07-26T00:12:11.131Z,99740.34
2022-07-26T00:12:56.628Z,99745.84
2022-07-26T00:13:41.410Z,99743.91
2022-07-26T00:14:23.223Z,99743.91
2022-07-26T00:15:06.946Z,99745.84
2022-07-26T00:15:54.444Z,99743.09
2022-07-26T00:16:43.248Z,99743.09
2022-07-26T00:17:30.021Z,99747.44
2022-07-26T00:18:19.340Z,99743.09
2022-07-26T00:19:08.421Z,99735.69
2022-07-26T00:19:55.038Z,99740.03
2022-07-26T00:20:41.450Z,99741.16
2022-07-26T00:21:29.001Z,99744.72
2022-07-26T00:22:18.674Z,99741.16
2022-07-26T00:23:06.347Z,99743.91
2022-07-26T00:23:54.998Z,99743.91
2022-07-26T00:24:46.585Z,99732.97
2022-07-26T00:25:33.507Z,99739.25
2022-07-26T00:26:18.070Z,99738.44
2022-07-26T00:27:03.988Z,99741.97
2022-07-26T00:27:54.285Z,99741.16
2022-07-26T00:28:39.719Z,99732.97
2022-07-26T00:29:29.644Z,99741.16
2022-07-26T00:30:18.306Z,99738.44
2022-07-26T00:31:04.822Z,99734.88
2022-07-26T00:31:48.651Z,99738.44
2022-07-26T00:32:38.870Z,99734.56
2022-07-26T00:33:30.363Z,99728.59
2022-07-26T00:36:49.449Z,99737.63
2022-07-26T00:37:56.843Z,99736.81
2022-07-26T00:38:55.886Z,99727.78
2022-07-26T00:40:00.410Z,99731.34
2022-07-26T00:41:06.422Z,99742.28
2022-07-26T00:42:04.225Z,99736.81
2022-07-26T00:43:15.026Z,99736.81
2022-07-26T00:44:10.423Z,99741.47
2022-07-26T00:45:10.187Z,99745.03
2022-07-26T00:46:20.761Z,99749.69
2022-07-26T00:47:14.469Z,99744.22
2022-07-26T00:48:00.558Z,99740.66
2022-07-26T00:48:51.595Z,99750.50
2022-07-26T00:49:38.490Z,99746.94
2022-07-26T00:50:30.380Z,99745.03
2022-07-26T00:51:14.496Z,99744.22
2022-07-26T00:52:00.198Z,99740.66
2022-07-26T00:52:44.869Z,99744.22
2022-07-26T00:54:26.513Z,99751.63
2022-07-26T00:55:10.567Z,99748.88
2022-07-26T00:55:58.445Z,99744.22
2022-07-26T00:56:55.186Z,99741.47
2022-07-26T00:57:43.480Z,99758.72
2022-07-26T00:58:47.433Z,99748.88
2022-07-26T01:02:32.541Z,99758.72
2022-07-26T01:03:30.358Z,99757.09
2022-07-26T01:04:30.200Z,99751.63
2022-07-26T01:05:23.730Z,99751.63
2022-07-26T01:06:26.973Z,99752.44
2022-07-26T01:07:20.485Z,99746.94
2022-07-26T01:08:11.036Z,99750.50
2022-07-26T01:09:02.101Z,99750.50
2022-07-26T01:09:45.752Z,99746.16
2022-07-26T01:10:33.482Z,99744.22
2022-07-26T01:11:20.849Z,99745.03
2022-07-26T01:12:09.422Z,99751.63
2022-07-26T01:13:49.353Z,99746.94
2022-07-26T01:15:30.231Z,99743.41
2022-07-26T01:16:30.283Z,99748.88
2022-07-26T01:17:15.448Z,99748.88
2022-07-26T01:18:04.160Z,99746.16
2022-07-26T01:18:49.433Z,99746.94
2022-07-26T01:20:35.752Z,99743.41
2022-07-26T01:21:26.577Z,99743.41
2022-07-26T01:22:14.385Z,99745.34
2022-07-26T01:23:05.246Z,99739.88
2022-07-26T01:23:51.010Z,99746.16
2022-07-26T01:24:33.548Z,99738.75
2022-07-26T01:25:21.176Z,99734.38
2022-07-26T01:26:18.163Z,99741.47
2022-07-26T01:27:10.059Z,99738.75
2022-07-26T01:27:55.673Z,99743.41
2022-07-26T01:29:01.100Z,99744.22
2022-07-26T01:29:53.548Z,99743.41
2022-07-26T01:30:41.613Z,99740.66
2022-07-26T01:32:24.967Z,99746.94
2022-07-26T01:33:17.977Z,99746.16
2022-07-26T01:34:17.414Z,99743.41
2022-07-26T01:35:09.912Z,99741.47
2022-07-26T01:36:00.318Z,99746.94
2022-07-26T01:36:46.497Z,99748.06
2022-07-26T01:37:37.547Z,99745.34
2022-07-26T01:38:23.899Z,99746.16
2022-07-26T01:39:13.177Z,99751.63
2022-07-26T01:40:03.891Z,99745.34
2022-07-26T01:40:47.416Z,99746.94
2022-07-26T01:41:38.220Z,99745.34
2022-07-26T01:42:22.836Z,99748.88
2022-07-26T01:43:07.475Z,99748.88
2022-07-26T01:43:55.786Z,99743.41
2022-07-26T01:44:45.171Z,99751.63
2022-07-26T01:46:25.744Z,99750.50
2022-07-26T01:47:15.809Z,99745.34
2022-07-26T01:48:04.858Z,99740.66
2022-07-26T01:48:56.616Z,99740.66
2022-07-26T01:49:43.935Z,99746.16
2022-07-26T01:50:27.513Z,99745.34
2022-07-26T01:53:06.675Z,99743.41
2022-07-26T01:53:51.186Z,99757.09
2022-07-26T01:54:39.993Z,99756.28
2022-07-26T01:57:21.491Z,99759.84
2022-07-26T01:58:17.109Z,99757.09
2022-07-26T01:59:08.475Z,99751.63
2022-07-26T02:01:39.637Z,99756.28
2022-07-26T02:03:18.077Z,99757.09
2022-07-26T02:04:19.499Z,99761.75
2022-07-26T02:05:07.237Z,99759.84
2022-07-26T02:05:54.148Z,99757.09
2022-07-26T02:06:34.646Z,99760.94
2022-07-26T02:07:27.066Z,99765.31
2022-07-26T02:08:17.887Z,99757.09
2022-07-26T02:09:04.246Z,99759.84
2022-07-26T02:09:54.606Z,99762.56
2022-07-26T02:10:53.095Z,99759.84
2022-07-26T02:13:53.271Z,99764.50
2022-07-26T02:15:09.163Z,99761.44
2022-07-26T02:16:00.772Z,99764.50
2022-07-26T02:17:56.448Z,99776.25
2022-07-26T02:18:45.282Z,99770.78
2022-07-26T02:19:33.209Z,99772.72
2022-07-26T02:20:25.966Z,99772.72
2022-07-26T02:21:12.710Z,99775.44
2022-07-26T02:21:55.562Z,99779.00
2022-07-26T02:22:40.120Z,99778.19
2022-07-26T02:23:24.762Z,99773.53
2022-07-26T02:24:11.343Z,99768.03
2022-07-26T02:25:04.755Z,99769.97
2022-07-26T02:25:49.857Z,99771.59
2022-07-26T02:26:36.353Z,99772.72
2022-07-26T02:27:23.008Z,99770.78
2022-07-26T02:28:08.728Z,99772.72
2022-07-26T02:28:59.663Z,99775.44
2022-07-26T02:29:46.658Z,99765.31
2022-07-26T02:30:34.795Z,99773.53
2022-07-26T02:32:22.914Z,99765.31
2022-07-26T02:33:09.443Z,99776.25
2022-07-26T02:33:58.614Z,99766.44
2022-07-26T02:34:48.171Z,99770.78
2022-07-26T02:35:35.575Z,99774.63
2022-07-26T02:37:15.026Z,99767.25
2022-07-26T02:38:08.628Z,99771.91
2022-07-26T02:39:56.051Z,99768.03
2022-07-26T02:42:33.360Z,99764.50
2022-07-26T02:43:20.641Z,99769.97
2022-07-26T02:44:09.990Z,99769.97
2022-07-26T02:44:59.253Z,99777.38
2022-07-26T02:46:01.013Z,99766.44
2022-07-26T02:46:53.581Z,99772.72
2022-07-26T02:47:47.696Z,99778.19
2022-07-26T02:48:39.883Z,99777.38
2022-07-26T02:49:28.714Z,99778.19
2022-07-26T02:50:12.335Z,99782.84
2022-07-26T02:51:03.005Z,99778.50
2022-07-26T02:51:49.633Z,99775.75
2022-07-26T02:52:37.814Z,99777.38
2022-07-26T02:53:28.800Z,99778.19
2022-07-26T02:54:17.100Z,99780.13
2022-07-26T02:55:57.612Z,99774.94
2022-07-26T02:57:46.187Z,99776.56
2022-07-26T02:58:27.193Z,99767.53
2022-07-26T02:59:16.495Z,99772.72
2022-07-26T03:00:04.714Z,99770.28
2022-07-26T03:00:57.079Z,99769.16
2022-07-26T03:01:43.822Z,99770.28
2022-07-26T03:02:31.638Z,99775.75
2022-07-26T03:05:58.845Z,99773.03
2022-07-26T03:06:46.399Z,99773.81
2022-07-26T03:07:34.866Z,99771.41
2022-07-26T03:08:22.829Z,99773.03
2022-07-26T03:10:07.317Z,99768.66
2022-07-26T03:11:04.869Z,99772.22
2022-07-26T03:11:50.566Z,99774.63
2022-07-26T03:12:35.905Z,99771.09
2022-07-26T03:13:35.561Z,99764.00
2022-07-26T03:14:20.748Z,99764.00
2022-07-26T03:15:11.613Z,99763.19
2022-07-26T03:16:01.169Z,99773.03
2022-07-26T03:16:49.399Z,99767.53
2022-07-26T03:17:37.471Z,99769.16
2022-07-26T03:18:25.050Z,99772.22
2022-07-26T03:19:11.595Z,99774.94
2022-07-26T03:19:58.381Z,99771.41
2022-07-26T03:20:46.616Z,99782.03
2022-07-26T03:21:32.859Z,99780.13
2022-07-26T03:22:22.938Z,99780.13
2022-07-26T03:23:11.291Z,99782.84
2022-07-26T03:23:59.639Z,99780.13
2022-07-26T03:24:45.231Z,99778.50
2022-07-26T03:25:30.720Z,99780.44
2022-07-26T03:26:20.169Z,99780.44
2022-07-26T03:27:10.715Z,99789.44
2022-07-26T03:27:58.081Z,99783.97
2022-07-26T03:28:44.499Z,99780.44
2022-07-26T03:29:34.066Z,99776.88
2022-07-26T03:30:24.897Z,99776.88
2022-07-26T03:31:10.784Z,99780.13
2022-07-26T03:31:58.667Z,99775.75
2022-07-26T03:32:44.954Z,99787.50
2022-07-26T03:33:33.690Z,99778.19
2022-07-26T03:34:23.617Z,99781.22
2022-07-26T03:35:09.793Z,99774.13
2022-07-26T03:35:57.719Z,99781.22
2022-07-26T03:36:41.111Z,99780.44
2022-07-26T03:37:44.839Z,99786.72
2022-07-26T03:38:29.823Z,99788.31
2022-07-26T03:39:20.160Z,99785.09
2022-07-26T03:40:08.468Z,99787.81
2022-07-26T03:40:52.121Z,99787.81
2022-07-26T03:41:34.351Z,99783.16
2022-07-26T03:42:24.607Z,99789.44
2022-07-26T03:43:13.357Z,99788.63
2022-07-26T03:43:58.431Z,99790.56
2022-07-26T03:44:47.137Z,99787.81
2022-07-26T03:45:40.905Z,99787.50
2022-07-26T03:46:29.177Z,99782.34
2022-07-26T03:47:23.231Z,99788.63
2022-07-26T03:48:17.351Z,99791.06
2022-07-26T03:49:13.262Z,99785.91
2022-07-26T03:51:55.339Z,99790.56
2022-07-26T03:52:38.694Z,99785.91
2022-07-26T03:53:28.738Z,99787.03
2022-07-26T03:54:13.062Z,99790.56
2022-07-26T03:55:01.123Z,99787.81
2022-07-26T03:55:53.582Z,99793.31
2022-07-26T03:56:38.148Z,99795.22
2022-07-26T03:57:32.273Z,99802.31
2022-07-26T03:58:25.828Z,99797.66
2022-07-26T03:59:15.403Z,99801.50
2022-07-26T04:00:02.429Z,99796.84
2022-07-26T04:01:46.186Z,99799.59
2022-07-26T04:02:30.650Z,99804.25
2022-07-26T04:03:23.908Z,99796.03
2022-07-26T04:04:30.640Z,99802.31
2022-07-26T04:05:23.408Z,99796.03
2022-07-26T04:06:08.262Z,99808.59
2022-07-26T04:06:54.846Z,99803.13
2022-07-26T04:07:38.419Z,99797.97
2022-07-26T04:08:27.888Z,99803.44
2022-07-26T04:09:14.432Z,99802.31
2022-07-26T04:10:07.373Z,99805.06
2022-07-26T04:10:53.036Z,99807.00
2022-07-26T04:11:47.311Z,99803.44
2022-07-26T04:12:30.750Z,99805.88
2022-07-26T04:13:18.665Z,99805.88
2022-07-26T04:14:08.451Z,99814.09
2022-07-26T04:14:58.420Z,99805.06
2022-07-26T04:15:47.573Z,99807.00
2022-07-26T04:16:42.932Z,99810.53
2022-07-26T04:17:29.982Z,99814.09
2022-07-26T04:18:15.518Z,99812.47
2022-07-26T04:18:59.639Z,99810.53
2022-07-26T04:19:44.507Z,99813.28
2022-07-26T04:20:31.881Z,99817.63
2022-07-26T04:23:12.630Z,99816.81
2022-07-26T04:25:07.295Z,99813.28
2022-07-26T04:26:07.636Z,99813.28
2022-07-26T04:27:03.439Z,99808.91
2022-07-26T04:28:12.847Z,99811.34
2022-07-26T04:28:50.208Z,99815.19
2022-07-26T04:29:26.868Z,99816.81
2022-07-26T04:30:03.651Z,99815.19
2022-07-26T04:30:40.463Z,99815.19
2022-07-26T04:31:18.427Z,99816.81
2022-07-26T04:31:55.837Z,99821.47
2022-07-26T04:32:32.827Z,99820.69
2022-07-26T04:33:08.242Z,99821.47
2022-07-26T04:33:44.666Z,99830.50
2022-07-26T04:34:21.303Z,99819.56
2022-07-26T04:34:57.515Z,99826.16
2022-07-26T04:35:33.926Z,99829.38
2022-07-26T04:36:11.644Z,99824.22
2022-07-26T04:36:47.257Z,99829.38
2022-07-26T04:37:23.043Z,99829.38
2022-07-26T04:37:58.913Z,99828.56
2022-07-26T04:38:35.133Z,99826.66
2022-07-26T04:39:11.674Z,99833.25
2022-07-26T04:39:51.671Z,99824.22
2022-07-26T04:40:30.345Z,99825.03
2022-07-26T04:41:07.121Z,99832.13
2022-07-26T04:41:43.334Z,99826.66
2022-07-26T04:42:19.442Z,99815.19
2022-07-26T04:43:00.911Z,99826.97
2022-07-26T04:43:39.293Z,99823.09
2022-07-26T04:44:19.761Z,99832.13
2022-07-26T04:44:58.704Z,99826.66
2022-07-26T04:45:38.997Z,99832.13
2022-07-26T04:46:17.132Z,99827.47
2022-07-26T04:46:57.326Z,99832.13
2022-07-26T04:47:35.804Z,99829.38
2022-07-26T04:48:11.651Z,99832.13
2022-07-26T04:48:47.513Z,99826.66
2022-07-26T04:49:23.606Z,99826.66
2022-07-26T04:50:00.212Z,99829.38
2022-07-26T04:50:37.179Z,99832.13
2022-07-26T04:51:13.803Z,99832.13
2022-07-26T04:51:50.350Z,99837.59
2022-07-26T04:52:26.094Z,99830.50
2022-07-26T04:53:02.694Z,99838.41
2022-07-26T04:53:39.466Z,99838.41
2022-07-26T04:54:15.647Z,99843.06
2022-07-26T04:54:52.412Z,99843.38
2022-07-26T04:55:28.663Z,99837.59
2022-07-26T04:56:05.321Z,99843.88
2022-07-26T04:56:41.787Z,99837.59
2022-07-26T04:57:18.361Z,99833.25
2022-07-26T04:57:55.140Z,99846.94
2022-07-26T04:58:31.575Z,99843.06
2022-07-26T04:59:09.687Z,99843.06
2022-07-26T04:59:58.143Z,99849.34
2022-07-26T05:01:08.604Z,99843.88
2022-07-26T05:01:36.678Z,99846.63
2022-07-26T05:02:13.690Z,99835.97
2022-07-26T05:02:51.319Z,99842.25
2022-07-26T05:03:27.495Z,99843.38
2022-07-26T05:04:02.973Z,99847.44
2022-07-26T05:04:39.888Z,99849.34
2022-07-26T05:05:17.297Z,99846.63
2022-07-26T05:05:53.860Z,99846.94
2022-07-26T05:06:30.700Z,99849.34
2022-07-26T05:07:06.382Z,99850.47
2022-07-26T05:07:43.002Z,99846.63
2022-07-26T05:08:19.811Z,99850.16
2022-07-26T05:08:56.425Z,99846.63
2022-07-26T05:09:32.177Z,99848.56
2022-07-26T05:10:08.964Z,99844.19
2022-07-26T05:10:45.796Z,99848.56
2022-07-26T05:11:22.108Z,99852.09
2022-07-26T05:11:59.050Z,99848.56
2022-07-26T05:12:40.636Z,99846.63
2022-07-26T05:13:23.082Z,99851.59
2022-07-26T05:14:08.733Z,99848.56
2022-07-26T05:14:46.690Z,99856.75
2022-07-26T05:15:24.343Z,99859.50
2022-07-26T05:16:03.516Z,99858.69
2022-07-26T05:16:49.731Z,99851.28
2022-07-26T05:17:27.424Z,99859.50
2022-07-26T05:18:13.523Z,99858.69
2022-07-26T05:18:53.420Z,99857.56
2022-07-26T05:19:32.889Z,99856.75
2022-07-26T05:20:10.396Z,99864.97
2022-07-26T05:20:46.666Z,99854.84
2022-07-26T05:21:23.636Z,99848.56
2022-07-26T05:22:00.515Z,99857.88
2022-07-26T05:22:36.932Z,99852.09
2022-07-26T05:23:14.140Z,99854.84
2022-07-26T05:23:50.792Z,99854.03
2022-07-26T05:24:26.697Z,99859.50
2022-07-26T05:25:03.112Z,99859.50
2022-07-26T05:25:40.005Z,99851.28
2022-07-26T05:26:16.628Z,99854.34
2022-07-26T05:26:58.261Z,99856.75
2022-07-26T05:27:34.186Z,99853.22
2022-07-26T05:28:10.506Z,99854.03
2022-07-26T05:28:46.831Z,99856.75
2022-07-26T05:29:22.709Z,99854.03
2022-07-26T05:29:59.547Z,99859.50
2022-07-26T05:30:35.675Z,99852.41
2022-07-26T05:31:12.454Z,99851.28
2022-07-26T05:31:49.124Z,99854.03
2022-07-26T05:32:26.041Z,99854.84
2022-07-26T05:33:02.238Z,99854.84
2022-07-26T05:33:38.995Z,99852.91
2022-07-26T05:34:15.560Z,99850.16
2022-07-26T05:34:51.236Z,99844.69
2022-07-26T05:35:28.118Z,99848.56
2022-07-26T05:36:04.079Z,99848.56
2022-07-26T05:36:40.948Z,99846.63
2022-07-26T05:37:17.429Z,99846.94
2022-07-26T05:37:53.763Z,99846.63
2022-07-26T05:38:30.009Z,99845.81
2022-07-26T05:39:06.332Z,99849.34
2022-07-26T05:39:43.618Z,99843.88
2022-07-26T05:40:23.083Z,99849.34
2022-07-26T05:41:01.261Z,99838.41
2022-07-26T05:41:41.379Z,99843.88
2022-07-26T05:42:22.978Z,99845.81
2022-07-26T05:43:03.830Z,99843.88
2022-07-26T05:43:44.316Z,99837.59
2022-07-26T05:44:23.882Z,99845.81
2022-07-26T05:45:01.922Z,99843.38
2022-07-26T05:45:38.938Z,99843.88
2022-07-26T05:46:15.928Z,99844.19
2022-07-26T05:46:52.108Z,99837.59
2022-07-26T05:47:29.189Z,99840.66
2022-07-26T05:48:06.842Z,99847.44
2022-07-26T05:48:44.060Z,99849.34
2022-07-26T05:49:20.545Z,99843.88
2022-07-26T05:49:57.108Z,99843.06
2022-07-26T05:50:32.428Z,99846.63
2022-07-26T05:51:09.234Z,99848.56
2022-07-26T05:51:46.224Z,99849.34
2022-07-26T05:52:23.167Z,99843.06
2022-07-26T05:53:00.019Z,99852.91
2022-07-26T05:53:36.145Z,99848.56
2022-07-26T05:54:13.450Z,99856.47
2022-07-26T05:54:49.829Z,99848.56
2022-07-26T05:55:25.554Z,99848.56
2022-07-26T05:56:02.482Z,99845.81
2022-07-26T05:56:39.058Z,99846.63
2022-07-26T05:57:15.693Z,99847.75
2022-07-26T05:57:52.065Z,99845.81
2022-07-26T05:58:28.290Z,99846.63
2022-07-26T05:59:04.970Z,99848.56
2022-07-26T05:59:40.689Z,99852.09
2022-07-26T06:00:16.587Z,99855.66
2022-07-26T06:00:54.707Z,99852.09
2022-07-26T06:01:32.085Z,99852.09
2022-07-26T06:02:09.275Z,99837.59
2022-07-26T06:02:46.952Z,99847.75
2022-07-26T06:03:28.058Z,99851.28
2022-07-26T06:04:11.392Z,99849.34
2022-07-26T06:04:48.132Z,99850.16
2022-07-26T06:05:28.792Z,99856.75
2022-07-26T06:06:10.814Z,99851.28
2022-07-26T06:06:54.495Z,99859.50
2022-07-26T06:07:35.670Z,99864.16
2022-07-26T06:08:16.316Z,99851.59
2022-07-26T06:08:57.416Z,99856.75
2022-07-26T06:09:39.080Z,99855.94
2022-07-26T06:10:19.652Z,99864.97
2022-07-26T06:11:01.111Z,99857.06
2022-07-26T06:11:39.486Z,99864.97
2022-07-26T06:12:15.832Z,99859.50
2022-07-26T06:12:52.404Z,99860.63
2022-07-26T06:13:29.394Z,99863.34
2022-07-26T06:14:05.801Z,99864.97
2022-07-26T06:14:42.004Z,99859.50
2022-07-26T06:15:18.013Z,99865.78
2022-07-26T06:15:54.582Z,99859.50
2022-07-26T06:16:31.486Z,99867.72
2022-07-26T06:17:07.752Z,99864.97
2022-07-26T06:17:44.684Z,99859.50
2022-07-26T06:18:21.882Z,99854.84
2022-07-26T06:18:58.346Z,99862.25
2022-07-26T06:19:34.538Z,99860.63
2022-07-26T06:20:10.710Z,99871.25
2022-07-26T06:20:46.588Z,99862.25
2022-07-26T06:21:23.862Z,99864.97
2022-07-26T06:22:00.017Z,99863.34
2022-07-26T06:22:35.990Z,99864.97
2022-07-26T06:23:13.019Z,99869.63
2022-07-26T06:23:50.076Z,99866.91
2022-07-26T06:24:26.138Z,99864.97
2022-07-26T06:25:01.532Z,99864.97
2022-07-26T06:25:38.936Z,99862.25
2022-07-26T06:26:15.808Z,99868.53
2022-07-26T06:26:56.590Z,99863.34
2022-07-26T06:27:32.711Z,99859.50
2022-07-26T06:28:09.319Z,99863.34
2022-07-26T06:28:46.451Z,99867.72
2022-07-26T06:29:23.414Z,99863.34
2022-07-26T06:30:07.032Z,99862.25
2022-07-26T06:30:42.668Z,99864.97
2022-07-26T06:31:19.965Z,99863.03
2022-07-26T06:31:57.267Z,99867.72
2022-07-26T06:32:33.657Z,99863.03
2022-07-26T06:33:10.992Z,99864.97
2022-07-26T06:33:47.276Z,99856.75
2022-07-26T06:34:25.114Z,99862.25
2022-07-26T06:35:00.299Z,99872.06
2022-07-26T06:35:31.764Z,99873.19
2022-07-26T06:36:03.124Z,99873.19
2022-07-26T06:36:34.550Z,99870.44
2022-07-26T06:37:05.881Z,99867.72
2022-07-26T06:37:37.276Z,99870.44
2022-07-26T06:38:08.719Z,99872.38
2022-07-26T06:39:24.322Z,99867.72
2022-07-26T06:40:07.092Z,99864.97
2022-07-26T06:40:53.554Z,99870.44
2022-07-26T06:41:36.862Z,99867.72
2022-07-26T06:42:23.376Z,99865.28
2022-07-26T06:43:12.903Z,99873.19
2022-07-26T06:44:05.694Z,99869.63
2022-07-26T06:45:02.442Z,99875.94
2022-07-26T06:45:57.717Z,99873.50
2022-07-26T06:46:42.813Z,99873.19
2022-07-26T06:47:25.978Z,99873.50
2022-07-26T06:48:10.261Z,99873.19
2022-07-26T06:48:57.016Z,99870.44
2022-07-26T06:49:41.801Z,99878.97
2022-07-26T06:50:35.204Z,99868.03
2022-07-26T06:51:37.670Z,99877.84
2022-07-26T06:52:22.087Z,99879.78
2022-07-26T06:53:05.060Z,99881.41
2022-07-26T06:53:49.297Z,99874.31
2022-07-26T06:54:40.617Z,99878.97
2022-07-26T06:55:29.574Z,99886.88
2022-07-26T06:56:35.322Z,99875.94
2022-07-26T06:57:50.163Z,99876.22
2022-07-26T06:58:40.320Z,99881.72
2022-07-26T06:59:32.904Z,99884.44
2022-07-26T07:00:19.824Z,99879.78
2022-07-26T07:01:01.143Z,99880.91
2022-07-26T07:01:57.538Z,99884.44
2022-07-26T07:02:43.045Z,99886.38
2022-07-26T07:03:37.021Z,99888.00
2022-07-26T07:04:28.180Z,99883.63
2022-07-26T07:05:23.075Z,99889.09
2022-07-26T07:06:06.143Z,99880.09
2022-07-26T07:06:54.690Z,99887.19
2022-07-26T07:07:44.045Z,99885.25
2022-07-26T07:08:38.597Z,99882.81
2022-07-26T07:09:23.339Z,99880.91
2022-07-26T07:10:12.652Z,99888.81
2022-07-26T07:11:12.588Z,99889.91
2022-07-26T07:12:03.386Z,99879.78
2022-07-26T07:12:55.317Z,99883.63
2022-07-26T07:13:49.282Z,99881.72
2022-07-26T07:14:37.071Z,99884.44
2022-07-26T07:15:31.112Z,99884.44
2022-07-26T07:16:13.010Z,99889.63
2022-07-26T07:17:03.345Z,99884.44
2022-07-26T07:17:51.282Z,99878.97
2022-07-26T07:19:26.841Z,99884.44
2022-07-26T07:20:20.721Z,99883.63
2022-07-26T07:21:04.275Z,99884.44
2022-07-26T07:22:31.022Z,99883.63
2022-07-26T07:23:16.938Z,99883.63
2022-07-26T07:24:09.876Z,99887.19
2022-07-26T07:25:00.844Z,99883.63
2022-07-26T07:25:50.445Z,99889.91
2022-07-26T07:26:43.018Z,99896.19
2022-07-26T07:27:30.081Z,99889.09
2022-07-26T07:28:19.743Z,99886.38
2022-07-26T07:29:05.770Z,99888.00
2022-07-26T07:29:57.159Z,99893.47
2022-07-26T07:30:42.193Z,99888.00
2022-07-26T07:31:48.574Z,99889.09
2022-07-26T07:32:35.295Z,99898.13
2022-07-26T07:33:36.558Z,99895.41
2022-07-26T07:34:25.463Z,99896.19
2022-07-26T07:35:16.890Z,99897.81
2022-07-26T07:35:59.919Z,99898.94
2022-07-26T07:36:52.612Z,99896.19
2022-07-26T07:37:53.418Z,99900.88
2022-07-26T07:38:42.826Z,99903.28
2022-07-26T07:39:34.893Z,99906.03
2022-07-26T07:40:22.953Z,99905.53
2022-07-26T07:41:14.820Z,99904.41
2022-07-26T07:41:56.026Z,99906.03
2022-07-26T07:42:46.394Z,99906.03
2022-07-26T07:43:30.066Z,99900.06
2022-07-26T07:44:21.513Z,99907.16
2022-07-26T07:45:07.231Z,99914.25
2022-07-26T07:45:59.220Z,99906.03
2022-07-26T07:46:43.741Z,99911.00
2022-07-26T07:47:36.015Z,99911.81
2022-07-26T07:48:23.050Z,99923.56
2022-07-26T07:49:14.321Z,99919.72
2022-07-26T07:50:00.466Z,99919.72
2022-07-26T07:50:50.793Z,99923.56
2022-07-26T07:51:36.460Z,99920.03
2022-07-26T07:52:24.736Z,99919.72
2022-07-26T07:53:09.468Z,99918.09
2022-07-26T07:53:58.635Z,99918.09
2022-07-26T07:54:39.443Z,99914.56
2022-07-26T07:55:40.941Z,99919.72
2022-07-26T07:56:25.838Z,99915.38
2022-07-26T07:57:12.102Z,99915.38
2022-07-26T07:57:56.769Z,99914.56
2022-07-26T07:58:47.193Z,99911.81
2022-07-26T07:59:31.509Z,99918.09
2022-07-26T08:00:26.851Z,99924.38
2022-07-26T08:01:21.843Z,99920.03
2022-07-26T08:02:21.605Z,99923.56
2022-07-26T08:03:17.919Z,99922.78
2022-07-26T08:04:09.786Z,99929.06
2022-07-26T08:06:22.605Z,99925.81
2022-07-26T08:07:36.153Z,99927.44
2022-07-26T08:09:35.554Z,99932.91
2022-07-26T08:10:34.104Z,99932.91
2022-07-26T08:11:50.929Z,99934.84
2022-07-26T08:12:35.211Z,99930.16
2022-07-26T08:13:22.819Z,99931.28
2022-07-26T08:14:10.914Z,99932.09
2022-07-26T08:14:53.317Z,99926.63
2022-07-26T08:15:39.717Z,99920.34
2022-07-26T08:16:24.194Z,99926.63
2022-07-26T08:17:10.995Z,99920.03
2022-07-26T08:17:57.571Z,99917.59
2022-07-26T08:18:55.797Z,99924.69
2022-07-26T08:19:42.466Z,99930.16
2022-07-26T08:20:26.588Z,99921.97
2022-07-26T08:21:10.007Z,99919.22
2022-07-26T08:21:57.196Z,99927.44
2022-07-26T08:22:46.533Z,99925.50
2022-07-26T08:23:52.016Z,99920.84
2022-07-26T08:24:49.673Z,99926.31
2022-07-26T08:25:33.942Z,99929.88
2022-07-26T08:26:26.925Z,99912.63
2022-07-26T08:27:15.192Z,99921.97
2022-07-26T08:28:30.714Z,99912.63
2022-07-26T08:29:16.665Z,99926.31
2022-07-26T08:30:07.717Z,99927.44
2022-07-26T08:30:53.214Z,99926.31
2022-07-26T08:31:43.454Z,99924.69
2022-07-26T08:32:32.372Z,99921.16
2022-07-26T08:33:17.102Z,99916.47
2022-07-26T08:34:13.579Z,99921.97
2022-07-26T08:35:19.596Z,99917.28
2022-07-26T08:36:03.337Z,99922.78
2022-07-26T08:37:15.382Z,99921.97
2022-07-26T08:37:58.815Z,99923.56
2022-07-26T08:38:47.581Z,99922.78
2022-07-26T08:39:30.217Z,99921.97
2022-07-26T08:40:21.964Z,99913.75
2022-07-26T08:41:12.221Z,99928.25
2022-07-26T08:41:56.167Z,99926.31
2022-07-26T08:42:47.264Z,99921.16
2022-07-26T08:43:52.008Z,99922.78
2022-07-26T08:44:41.729Z,99932.91
2022-07-26T08:45:27.101Z,99927.44
2022-07-26T08:46:16.102Z,99929.34
2022-07-26T08:47:00.756Z,99927.44
2022-07-26T08:48:15.025Z,99930.16
2022-07-26T08:48:49.602Z,99926.63
2022-07-26T08:49:33.263Z,99922.78
2022-07-26T08:50:17.531Z,99928.25
2022-07-26T08:51:06.130Z,99929.06
2022-07-26T08:51:52.024Z,99929.06
2022-07-26T08:52:42.965Z,99930.69
2022-07-26T08:53:28.917Z,99930.97
2022-07-26T08:54:14.545Z,99927.44
2022-07-26T08:55:02.230Z,99934.53
2022-07-26T08:56:08.426Z,99931.78
2022-07-26T08:56:52.144Z,99931.78
2022-07-26T08:57:36.625Z,99928.25
2022-07-26T08:58:22.696Z,99927.94
2022-07-26T08:59:19.136Z,99929.06
2022-07-26T09:00:06.369Z,99929.06
2022-07-26T09:00:54.187Z,99926.31
2022-07-26T09:01:38.226Z,99929.88
2022-07-26T09:02:26.723Z,99937.25
2022-07-26T09:03:12.259Z,99933.41
2022-07-26T09:03:59.291Z,99931.78
2022-07-26T09:04:45.003Z,99931.78
2022-07-26T09:05:27.625Z,99933.72
2022-07-26T09:06:16.275Z,99934.53
2022-07-26T09:07:05.910Z,99935.34
2022-07-26T09:07:48.636Z,99931.78
2022-07-26T09:08:40.385Z,99930.97
2022-07-26T09:09:30.112Z,99930.97
2022-07-26T09:10:20.718Z,99933.41
2022-07-26T09:11:00.958Z,99933.72
2022-07-26T09:11:41.314Z,99934.53
2022-07-26T09:12:30.183Z,99926.31
2022-07-26T09:13:26.045Z,99929.06
2022-07-26T09:14:38.363Z,99932.91
2022-07-26T09:15:36.012Z,99929.06
2022-07-26T09:16:33.361Z,99933.72
2022-07-26T09:17:37.622Z,99928.25
2022-07-26T09:19:25.449Z,99933.72
2022-07-26T09:20:37.602Z,99930.97
2022-07-26T09:21:35.805Z,99930.97
2022-07-26T09:22:31.203Z,99929.34
2022-07-26T09:23:26.067Z,99936.47
2022-07-26T09:24:16.129Z,99930.16
2022-07-26T09:25:09.072Z,99935.66
2022-07-26T09:26:01.656Z,99937.56
2022-07-26T09:26:57.642Z,99935.66
2022-07-26T09:27:52.287Z,99933.72
2022-07-26T09:28:49.874Z,99935.66
2022-07-26T09:29:46.811Z,99939.50
2022-07-26T09:31:40.228Z,99938.38
2022-07-26T09:32:36.475Z,99938.38
2022-07-26T09:33:33.704Z,99935.66
2022-07-26T09:34:28.675Z,99932.09
2022-07-26T09:35:49.973Z,99930.97
2022-07-26T09:36:26.168Z,99935.66
2022-07-26T09:38:25.564Z,99943.84
2022-07-26T09:39:34.085Z,99937.56
2022-07-26T09:41:23.058Z,99941.13
2022-07-26T09:42:32.377Z,99938.38
2022-07-26T09:44:20.141Z,99943.84
2022-07-26T09:46:18.686Z,99950.16
2022-07-26T09:50:23.043Z,99964.94
2022-07-26T09:51:16.271Z,99955.91
2022-07-26T09:52:19.403Z,99960.28
2022-07-26T09:53:17.832Z,99952.38
2022-07-26T09:54:10.083Z,99962.22
2022-07-26T09:56:14.809Z,99960.59